sensor_id;sensor_type;location;lat;lon;timestamp;P1;durP1;ratioP1;P2;durP2;ratioP2
41739;SDS011;27422;52.444;13.300;2022-10-18T00:01:35;8.20;;;4.43;;
41739;SDS011;27422;52.444;13.300;2022-10-18T00:04:00;7.47;;;4.60;;
41739;SDS011;27422;52.444;13.300;2022-10-18T00:06:26;7.20;;;4.45;;
41739;SDS011;27422;52.444;13.300;2022-10-18T00:08:51;8.20;;;4.05;;
41739;SDS011;27422;52.444;13.300;2022-10-18T00:11:37;7.13;;;4.80;;
41739;SDS011;27422;52.444;13.300;2022-10-18T00:14:03;8.73;;;4.88;;
41739;SDS011;27422;52.444;13.300;2022-10-18T00:16:28;6.93;;;4.63;;
41739;SDS011;27422;52.444;13.300;2022-10-18T00:18:54;7.82;;;4.78;;
41739;SDS011;27422;52.444;13.300;2022-10-18T00:21:21;7.93;;;4.78;;
41739;SDS011;27422;52.444;13.300;2022-10-18T00:23:47;8.25;;;5.00;;
41739;SDS011;27422;52.444;13.300;2022-10-18T00:26:18;8.68;;;4.82;;
41739;SDS011;27422;52.444;13.300;2022-10-18T00:28:45;6.78;;;4.45;;
41739;SDS011;27422;52.444;13.300;2022-10-18T00:31:21;9.13;;;4.53;;
41739;SDS011;27422;52.444;13.300;2022-10-18T00:34:01;7.55;;;4.38;;
41739;SDS011;27422;52.444;13.300;2022-10-18T00:36:29;7.32;;;4.20;;
41739;SDS011;27422;52.444;13.300;2022-10-18T00:38:56;8.45;;;4.40;;
41739;SDS011;27422;52.444;13.300;2022-10-18T00:41:25;7.68;;;4.40;;
41739;SDS011;27422;52.444;13.300;2022-10-18T00:46:52;7.05;;;4.32;;
41739;SDS011;27422;52.444;13.300;2022-10-18T00:49:22;6.63;;;4.22;;
41739;SDS011;27422;52.444;13.300;2022-10-18T00:52:00;7.45;;;4.15;;
41739;SDS011;27422;52.444;13.300;2022-10-18T00:54:34;7.05;;;4.50;;
41739;SDS011;27422;52.444;13.300;2022-10-18T00:57:01;8.02;;;4.68;;
41739;SDS011;27422;52.444;13.300;2022-10-18T00:59:27;6.68;;;4.00;;
41739;SDS011;27422;52.444;13.300;2022-10-18T01:01:53;7.97;;;4.60;;
41739;SDS011;27422;52.444;13.300;2022-10-18T01:04:18;7.00;;;4.47;;
41739;SDS011;27422;52.444;13.300;2022-10-18T01:09:46;7.80;;;4.13;;
41739;SDS011;27422;52.444;13.300;2022-10-18T01:12:16;5.95;;;3.95;;
41739;SDS011;27422;52.444;13.300;2022-10-18T01:17:50;6.20;;;3.90;;
41739;SDS011;27422;52.444;13.300;2022-10-18T01:20:37;6.63;;;4.25;;
41739;SDS011;27422;52.444;13.300;2022-10-18T01:26:27;7.10;;;4.57;;
41739;SDS011;27422;52.444;13.300;2022-10-18T01:32:00;5.80;;;3.87;;
41739;SDS011;27422;52.444;13.300;2022-10-18T01:34:29;6.63;;;4.20;;
41739;SDS011;27422;52.444;13.300;2022-10-18T01:36:57;8.27;;;4.28;;
41739;SDS011;27422;52.444;13.300;2022-10-18T01:39:25;8.23;;;4.10;;
41739;SDS011;27422;52.444;13.300;2022-10-18T01:41:53;7.32;;;4.63;;
41739;SDS011;27422;52.444;13.300;2022-10-18T01:44:22;7.50;;;4.35;;
41739;SDS011;27422;52.444;13.300;2022-10-18T01:46:50;8.93;;;4.60;;
41739;SDS011;27422;52.444;13.300;2022-10-18T01:49:17;8.45;;;4.50;;
41739;SDS011;27422;52.444;13.300;2022-10-18T01:51:42;6.88;;;4.35;;
41739;SDS011;27422;52.444;13.300;2022-10-18T01:54:08;8.10;;;4.55;;
41739;SDS011;27422;52.444;13.300;2022-10-18T02:04:42;8.85;;;4.80;;
41739;SDS011;27422;52.444;13.300;2022-10-18T02:09:39;6.45;;;4.20;;
41739;SDS011;27422;52.444;13.300;2022-10-18T02:12:08;8.02;;;4.60;;
41739;SDS011;27422;52.444;13.300;2022-10-18T02:14:34;7.18;;;4.40;;
41739;SDS011;27422;52.444;13.300;2022-10-18T02:17:02;7.68;;;4.40;;
41739;SDS011;27422;52.444;13.300;2022-10-18T02:19:37;8.23;;;3.85;;
41739;SDS011;27422;52.444;13.300;2022-10-18T02:22:06;7.72;;;4.78;;
41739;SDS011;27422;52.444;13.300;2022-10-18T02:27:08;8.02;;;4.82;;
41739;SDS011;27422;52.444;13.300;2022-10-18T02:29:34;8.10;;;4.13;;
41739;SDS011;27422;52.444;13.300;2022-10-18T02:32:10;8.02;;;5.00;;
41739;SDS011;27422;52.444;13.300;2022-10-18T02:34:41;7.00;;;4.43;;
41739;SDS011;27422;52.444;13.300;2022-10-18T02:37:10;7.72;;;4.75;;
41739;SDS011;27422;52.444;13.300;2022-10-18T02:39:45;8.45;;;4.90;;
41739;SDS011;27422;52.444;13.300;2022-10-18T02:42:12;8.18;;;4.90;;
41739;SDS011;27422;52.444;13.300;2022-10-18T02:44:38;8.73;;;5.13;;
41739;SDS011;27422;52.444;13.300;2022-10-18T02:47:05;8.43;;;5.07;;
41739;SDS011;27422;52.444;13.300;2022-10-18T02:49:33;7.70;;;5.15;;
41739;SDS011;27422;52.444;13.300;2022-10-18T02:51:58;7.82;;;4.85;;
41739;SDS011;27422;52.444;13.300;2022-10-18T02:54:24;8.55;;;4.90;;
41739;SDS011;27422;52.444;13.300;2022-10-18T02:56:49;7.53;;;5.72;;
41739;SDS011;27422;52.444;13.300;2022-10-18T02:59:15;9.80;;;5.50;;
41739;SDS011;27422;52.444;13.300;2022-10-18T03:01:40;8.50;;;5.30;;
41739;SDS011;27422;52.444;13.300;2022-10-18T03:04:06;7.80;;;5.07;;
41739;SDS011;27422;52.444;13.300;2022-10-18T03:06:31;7.80;;;5.15;;
41739;SDS011;27422;52.444;13.300;2022-10-18T03:08:57;8.48;;;5.38;;
41739;SDS011;27422;52.444;13.300;2022-10-18T03:11:26;9.32;;;4.95;;
41739;SDS011;27422;52.444;13.300;2022-10-18T03:13:53;7.90;;;5.63;;
41739;SDS011;27422;52.444;13.300;2022-10-18T03:16:18;7.38;;;5.10;;
41739;SDS011;27422;52.444;13.300;2022-10-18T03:18:43;7.93;;;5.40;;
41739;SDS011;27422;52.444;13.300;2022-10-18T03:21:09;8.68;;;5.85;;
41739;SDS011;27422;52.444;13.300;2022-10-18T03:23:34;9.02;;;6.18;;
41739;SDS011;27422;52.444;13.300;2022-10-18T03:25:59;8.05;;;6.00;;
41739;SDS011;27422;52.444;13.300;2022-10-18T03:28:25;9.77;;;6.53;;
41739;SDS011;27422;52.444;13.300;2022-10-18T03:30:50;9.65;;;6.00;;
41739;SDS011;27422;52.444;13.300;2022-10-18T03:33:15;9.02;;;6.32;;
41739;SDS011;27422;52.444;13.300;2022-10-18T03:35:41;10.27;;;6.03;;
41739;SDS011;27422;52.444;13.300;2022-10-18T03:38:07;8.90;;;5.97;;
41739;SDS011;27422;52.444;13.300;2022-10-18T03:40:32;9.23;;;6.43;;
41739;SDS011;27422;52.444;13.300;2022-10-18T03:43:00;10.55;;;6.97;;
41739;SDS011;27422;52.444;13.300;2022-10-18T03:45:26;9.35;;;5.85;;
41739;SDS011;27422;52.444;13.300;2022-10-18T03:47:53;9.07;;;6.20;;
41739;SDS011;27422;52.444;13.300;2022-10-18T03:52:44;9.53;;;5.90;;
41739;SDS011;27422;52.444;13.300;2022-10-18T03:55:12;9.30;;;6.10;;
41739;SDS011;27422;52.444;13.300;2022-10-18T04:00:02;10.52;;;6.10;;
41739;SDS011;27422;52.444;13.300;2022-10-18T04:02:28;9.32;;;5.90;;
41739;SDS011;27422;52.444;13.300;2022-10-18T04:04:53;10.20;;;6.05;;
41739;SDS011;27422;52.444;13.300;2022-10-18T04:07:19;7.97;;;5.60;;
41739;SDS011;27422;52.444;13.300;2022-10-18T04:09:44;8.35;;;5.72;;
41739;SDS011;27422;52.444;13.300;2022-10-18T04:12:09;8.73;;;5.50;;
41739;SDS011;27422;52.444;13.300;2022-10-18T04:14:35;9.45;;;6.28;;
41739;SDS011;27422;52.444;13.300;2022-10-18T04:17:00;9.93;;;5.95;;
41739;SDS011;27422;52.444;13.300;2022-10-18T04:19:25;8.52;;;6.10;;
41739;SDS011;27422;52.444;13.300;2022-10-18T04:21:54;10.27;;;6.18;;
41739;SDS011;27422;52.444;13.300;2022-10-18T04:24:19;11.80;;;6.57;;
41739;SDS011;27422;52.444;13.300;2022-10-18T04:26:45;8.90;;;5.70;;
41739;SDS011;27422;52.444;13.300;2022-10-18T04:29:10;9.50;;;6.45;;
41739;SDS011;27422;52.444;13.300;2022-10-18T04:31:35;9.35;;;6.18;;
41739;SDS011;27422;52.444;13.300;2022-10-18T04:34:01;8.63;;;5.80;;
41739;SDS011;27422;52.444;13.300;2022-10-18T04:36:28;9.55;;;6.07;;
41739;SDS011;27422;52.444;13.300;2022-10-18T04:38:53;10.15;;;6.10;;
41739;SDS011;27422;52.444;13.300;2022-10-18T04:41:18;9.52;;;6.55;;
41739;SDS011;27422;52.444;13.300;2022-10-18T04:43:44;9.95;;;6.03;;
41739;SDS011;27422;52.444;13.300;2022-10-18T04:46:09;10.70;;;6.60;;
41739;SDS011;27422;52.444;13.300;2022-10-18T04:48:35;10.30;;;6.82;;
41739;SDS011;27422;52.444;13.300;2022-10-18T04:51:00;9.90;;;6.30;;
41739;SDS011;27422;52.444;13.300;2022-10-18T04:53:25;8.43;;;5.72;;
41739;SDS011;27422;52.444;13.300;2022-10-18T04:55:51;9.30;;;6.13;;
41739;SDS011;27422;52.444;13.300;2022-10-18T04:58:16;11.73;;;6.53;;
41739;SDS011;27422;52.444;13.300;2022-10-18T05:00:42;9.70;;;5.90;;
41739;SDS011;27422;52.444;13.300;2022-10-18T05:03:08;11.05;;;7.30;;
41739;SDS011;27422;52.444;13.300;2022-10-18T05:05:34;9.55;;;6.55;;
41739;SDS011;27422;52.444;13.300;2022-10-18T05:08:00;9.80;;;6.72;;
41739;SDS011;27422;52.444;13.300;2022-10-18T05:10:25;11.68;;;6.25;;
41739;SDS011;27422;52.444;13.300;2022-10-18T05:12:54;8.77;;;6.05;;
41739;SDS011;27422;52.444;13.300;2022-10-18T05:15:19;8.73;;;6.07;;
41739;SDS011;27422;52.444;13.300;2022-10-18T05:17:44;11.43;;;6.70;;
41739;SDS011;27422;52.444;13.300;2022-10-18T05:20:10;12.23;;;7.00;;
41739;SDS011;27422;52.444;13.300;2022-10-18T05:22:35;10.05;;;6.28;;
41739;SDS011;27422;52.444;13.300;2022-10-18T05:25:00;10.65;;;6.32;;
41739;SDS011;27422;52.444;13.300;2022-10-18T05:27:26;12.82;;;7.50;;
41739;SDS011;27422;52.444;13.300;2022-10-18T05:29:52;10.10;;;6.65;;
41739;SDS011;27422;52.444;13.300;2022-10-18T05:32:17;10.13;;;6.97;;
41739;SDS011;27422;52.444;13.300;2022-10-18T05:34:43;11.75;;;6.63;;
41739;SDS011;27422;52.444;13.300;2022-10-18T05:37:08;10.18;;;6.40;;
41739;SDS011;27422;52.444;13.300;2022-10-18T05:39:33;9.43;;;6.00;;
41739;SDS011;27422;52.444;13.300;2022-10-18T05:41:59;12.32;;;6.97;;
41739;SDS011;27422;52.444;13.300;2022-10-18T05:44:24;11.15;;;6.53;;
41739;SDS011;27422;52.444;13.300;2022-10-18T05:46:49;11.60;;;7.28;;
41739;SDS011;27422;52.444;13.300;2022-10-18T05:49:15;10.82;;;6.75;;
41739;SDS011;27422;52.444;13.300;2022-10-18T05:51:40;10.52;;;7.10;;
41739;SDS011;27422;52.444;13.300;2022-10-18T05:54:06;13.18;;;7.40;;
41739;SDS011;27422;52.444;13.300;2022-10-18T05:56:31;11.23;;;7.22;;
41739;SDS011;27422;52.444;13.300;2022-10-18T05:58:56;12.02;;;7.18;;
41739;SDS011;27422;52.444;13.300;2022-10-18T06:01:22;10.15;;;6.88;;
41739;SDS011;27422;52.444;13.300;2022-10-18T06:03:47;10.68;;;6.85;;
41739;SDS011;27422;52.444;13.300;2022-10-18T06:06:13;10.35;;;6.82;;
41739;SDS011;27422;52.444;13.300;2022-10-18T06:08:39;11.27;;;6.70;;
41739;SDS011;27422;52.444;13.300;2022-10-18T06:11:06;10.68;;;6.90;;
41739;SDS011;27422;52.444;13.300;2022-10-18T06:13:39;11.60;;;7.22;;
41739;SDS011;27422;52.444;13.300;2022-10-18T06:16:08;10.75;;;7.35;;
41739;SDS011;27422;52.444;13.300;2022-10-18T06:18:34;8.98;;;6.32;;
41739;SDS011;27422;52.444;13.300;2022-10-18T06:20:59;10.55;;;6.85;;
41739;SDS011;27422;52.444;13.300;2022-10-18T06:23:25;11.63;;;7.45;;
41739;SDS011;27422;52.444;13.300;2022-10-18T06:25:53;11.68;;;6.90;;
41739;SDS011;27422;52.444;13.300;2022-10-18T06:28:22;12.27;;;6.40;;
41739;SDS011;27422;52.444;13.300;2022-10-18T06:30:48;14.15;;;7.60;;
41739;SDS011;27422;52.444;13.300;2022-10-18T06:33:13;11.43;;;7.00;;
41739;SDS011;27422;52.444;13.300;2022-10-18T06:35:38;10.90;;;6.88;;
41739;SDS011;27422;52.444;13.300;2022-10-18T06:38:04;12.20;;;7.13;;
41739;SDS011;27422;52.444;13.300;2022-10-18T06:40:30;11.13;;;6.97;;
41739;SDS011;27422;52.444;13.300;2022-10-18T06:43:01;12.80;;;7.15;;
41739;SDS011;27422;52.444;13.300;2022-10-18T06:45:30;10.55;;;6.90;;
41739;SDS011;27422;52.444;13.300;2022-10-18T06:47:55;9.90;;;6.70;;
41739;SDS011;27422;52.444;13.300;2022-10-18T06:50:22;10.60;;;7.05;;
41739;SDS011;27422;52.444;13.300;2022-10-18T06:52:47;11.98;;;7.70;;
41739;SDS011;27422;52.444;13.300;2022-10-18T06:55:15;12.00;;;7.10;;
41739;SDS011;27422;52.444;13.300;2022-10-18T06:57:40;10.40;;;6.63;;
41739;SDS011;27422;52.444;13.300;2022-10-18T07:00:06;11.85;;;7.40;;
41739;SDS011;27422;52.444;13.300;2022-10-18T07:02:32;12.25;;;7.07;;
41739;SDS011;27422;52.444;13.300;2022-10-18T07:04:57;12.48;;;6.97;;
41739;SDS011;27422;52.444;13.300;2022-10-18T07:07:22;10.98;;;7.00;;
41739;SDS011;27422;52.444;13.300;2022-10-18T07:09:48;11.73;;;6.90;;
41739;SDS011;27422;52.444;13.300;2022-10-18T07:12:13;12.48;;;7.10;;
41739;SDS011;27422;52.444;13.300;2022-10-18T07:14:41;12.07;;;7.35;;
41739;SDS011;27422;52.444;13.300;2022-10-18T07:17:07;11.27;;;7.28;;
41739;SDS011;27422;52.444;13.300;2022-10-18T07:19:32;10.38;;;6.97;;
41739;SDS011;27422;52.444;13.300;2022-10-18T07:21:58;13.38;;;7.35;;
41739;SDS011;27422;52.444;13.300;2022-10-18T07:24:23;11.32;;;7.47;;
41739;SDS011;27422;52.444;13.300;2022-10-18T07:26:48;12.52;;;7.43;;
41739;SDS011;27422;52.444;13.300;2022-10-18T07:29:14;11.88;;;7.57;;
41739;SDS011;27422;52.444;13.300;2022-10-18T07:31:39;11.38;;;7.47;;
41739;SDS011;27422;52.444;13.300;2022-10-18T07:34:05;10.05;;;6.95;;
41739;SDS011;27422;52.444;13.300;2022-10-18T07:36:31;15.43;;;7.63;;
41739;SDS011;27422;52.444;13.300;2022-10-18T07:39:03;11.43;;;7.63;;
41739;SDS011;27422;52.444;13.300;2022-10-18T07:41:29;9.32;;;6.88;;
41739;SDS011;27422;52.444;13.300;2022-10-18T07:43:57;10.63;;;6.78;;
41739;SDS011;27422;52.444;13.300;2022-10-18T07:46:23;10.93;;;7.13;;
41739;SDS011;27422;52.444;13.300;2022-10-18T07:48:49;14.18;;;7.60;;
41739;SDS011;27422;52.444;13.300;2022-10-18T07:51:15;10.27;;;6.78;;
41739;SDS011;27422;52.444;13.300;2022-10-18T07:53:40;12.27;;;7.20;;
41739;SDS011;27422;52.444;13.300;2022-10-18T07:56:07;13.70;;;7.07;;
41739;SDS011;27422;52.444;13.300;2022-10-18T07:58:39;12.00;;;6.97;;
41739;SDS011;27422;52.444;13.300;2022-10-18T08:01:06;10.73;;;6.60;;
41739;SDS011;27422;52.444;13.300;2022-10-18T08:03:32;12.95;;;6.65;;
41739;SDS011;27422;52.444;13.300;2022-10-18T08:05:58;9.90;;;6.68;;
41739;SDS011;27422;52.444;13.300;2022-10-18T08:08:24;10.32;;;6.50;;
41739;SDS011;27422;52.444;13.300;2022-10-18T08:10:50;10.98;;;6.78;;
41739;SDS011;27422;52.444;13.300;2022-10-18T08:13:15;12.07;;;6.68;;
41739;SDS011;27422;52.444;13.300;2022-10-18T08:15:40;10.25;;;6.38;;
41739;SDS011;27422;52.444;13.300;2022-10-18T08:18:06;10.43;;;6.30;;
41739;SDS011;27422;52.444;13.300;2022-10-18T08:20:31;11.85;;;6.72;;
41739;SDS011;27422;52.444;13.300;2022-10-18T08:22:57;11.63;;;7.15;;
41739;SDS011;27422;52.444;13.300;2022-10-18T08:25:23;15.60;;;7.60;;
41739;SDS011;27422;52.444;13.300;2022-10-18T08:27:52;11.20;;;6.72;;
41739;SDS011;27422;52.444;13.300;2022-10-18T08:30:17;11.10;;;7.03;;
41739;SDS011;27422;52.444;13.300;2022-10-18T08:32:42;11.98;;;7.57;;
41739;SDS011;27422;52.444;13.300;2022-10-18T08:35:08;14.95;;;7.93;;
41739;SDS011;27422;52.444;13.300;2022-10-18T08:37:33;12.30;;;7.25;;
41739;SDS011;27422;52.444;13.300;2022-10-18T08:39:58;14.60;;;7.93;;
41739;SDS011;27422;52.444;13.300;2022-10-18T08:45:14;14.18;;;7.90;;
41739;SDS011;27422;52.444;13.300;2022-10-18T08:47:41;16.15;;;8.57;;
41739;SDS011;27422;52.444;13.300;2022-10-18T08:50:41;12.93;;;7.68;;
41739;SDS011;27422;52.444;13.300;2022-10-18T08:53:15;11.95;;;8.02;;
41739;SDS011;27422;52.444;13.300;2022-10-18T08:55:45;14.45;;;8.20;;
41739;SDS011;27422;52.444;13.300;2022-10-18T08:58:16;12.85;;;8.40;;
41739;SDS011;27422;52.444;13.300;2022-10-18T09:03:32;16.25;;;9.10;;
41739;SDS011;27422;52.444;13.300;2022-10-18T09:09:15;16.05;;;9.70;;
41739;SDS011;27422;52.444;13.300;2022-10-18T09:17:16;12.43;;;7.28;;
41739;SDS011;27422;52.444;13.300;2022-10-18T09:20:06;12.98;;;7.63;;
41739;SDS011;27422;52.444;13.300;2022-10-18T09:22:53;12.57;;;7.20;;
41739;SDS011;27422;52.444;13.300;2022-10-18T09:25:21;13.55;;;7.40;;
41739;SDS011;27422;52.444;13.300;2022-10-18T09:27:55;13.18;;;7.88;;
41739;SDS011;27422;52.444;13.300;2022-10-18T09:30:28;13.43;;;7.65;;
41739;SDS011;27422;52.444;13.300;2022-10-18T09:35:42;13.35;;;6.88;;
41739;SDS011;27422;52.444;13.300;2022-10-18T09:38:12;13.00;;;7.10;;
41739;SDS011;27422;52.444;13.300;2022-10-18T09:43:37;10.15;;;6.40;;
41739;SDS011;27422;52.444;13.300;2022-10-18T09:46:04;10.52;;;5.90;;
41739;SDS011;27422;52.444;13.300;2022-10-18T09:48:33;11.93;;;6.78;;
41739;SDS011;27422;52.444;13.300;2022-10-18T09:51:13;12.77;;;7.10;;
41739;SDS011;27422;52.444;13.300;2022-10-18T09:56:29;10.90;;;6.45;;
41739;SDS011;27422;52.444;13.300;2022-10-18T09:58:55;10.95;;;6.10;;
41739;SDS011;27422;52.444;13.300;2022-10-18T10:01:21;11.32;;;6.05;;
41739;SDS011;27422;52.444;13.300;2022-10-18T10:03:49;10.35;;;5.70;;
41739;SDS011;27422;52.444;13.300;2022-10-18T10:06:16;9.02;;;5.78;;
41739;SDS011;27422;52.444;13.300;2022-10-18T10:08:43;10.52;;;6.00;;
41739;SDS011;27422;52.444;13.300;2022-10-18T10:11:28;9.15;;;5.60;;
41739;SDS011;27422;52.444;13.300;2022-10-18T10:13:57;9.43;;;6.00;;
41739;SDS011;27422;52.444;13.300;2022-10-18T10:16:32;9.40;;;6.28;;
41739;SDS011;27422;52.444;13.300;2022-10-18T10:18:57;11.80;;;6.40;;
41739;SDS011;27422;52.444;13.300;2022-10-18T10:21:23;9.93;;;6.03;;
41739;SDS011;27422;52.444;13.300;2022-10-18T10:23:50;10.70;;;6.25;;
41739;SDS011;27422;52.444;13.300;2022-10-18T10:28:57;9.13;;;6.05;;
41739;SDS011;27422;52.444;13.300;2022-10-18T10:33:57;10.88;;;6.38;;
41739;SDS011;27422;52.444;13.300;2022-10-18T10:36:30;11.00;;;6.20;;
41739;SDS011;27422;52.444;13.300;2022-10-18T10:41:31;12.10;;;6.60;;
41739;SDS011;27422;52.444;13.300;2022-10-18T10:43:57;11.57;;;6.57;;
41739;SDS011;27422;52.444;13.300;2022-10-18T10:46:22;10.15;;;6.93;;
41739;SDS011;27422;52.444;13.300;2022-10-18T10:48:53;13.90;;;6.55;;
41739;SDS011;27422;52.444;13.300;2022-10-18T10:51:30;11.57;;;7.43;;
41739;SDS011;27422;52.444;13.300;2022-10-18T10:54:01;12.63;;;6.97;;
41739;SDS011;27422;52.444;13.300;2022-10-18T10:56:31;12.75;;;7.00;;
41739;SDS011;27422;52.444;13.300;2022-10-18T10:59:09;11.48;;;6.53;;
41739;SDS011;27422;52.444;13.300;2022-10-18T11:01:38;12.07;;;6.43;;
41739;SDS011;27422;52.444;13.300;2022-10-18T11:06:51;10.65;;;6.60;;
41739;SDS011;27422;52.444;13.300;2022-10-18T11:09:29;10.70;;;6.68;;
41739;SDS011;27422;52.444;13.300;2022-10-18T11:14:44;10.18;;;6.05;;
41739;SDS011;27422;52.444;13.300;2022-10-18T11:17:22;8.77;;;5.93;;
41739;SDS011;27422;52.444;13.300;2022-10-18T11:25:04;9.45;;;6.15;;
41739;SDS011;27422;52.444;13.300;2022-10-18T11:27:40;10.82;;;6.35;;
41739;SDS011;27422;52.444;13.300;2022-10-18T11:35:30;12.02;;;6.90;;
41739;SDS011;27422;52.444;13.300;2022-10-18T11:40:49;12.23;;;7.03;;
41739;SDS011;27422;52.444;13.300;2022-10-18T11:46:18;8.20;;;5.27;;
41739;SDS011;27422;52.444;13.300;2022-10-18T11:54:04;6.95;;;4.90;;
41739;SDS011;27422;52.444;13.300;2022-10-18T11:56:56;7.20;;;4.82;;
41739;SDS011;27422;52.444;13.300;2022-10-18T11:59:37;8.35;;;5.25;;
41739;SDS011;27422;52.444;13.300;2022-10-18T12:04:50;14.73;;;5.97;;
41739;SDS011;27422;52.444;13.300;2022-10-18T12:07:18;8.00;;;5.00;;
41739;SDS011;27422;52.444;13.300;2022-10-18T12:09:46;7.43;;;4.70;;
41739;SDS011;27422;52.444;13.300;2022-10-18T12:15:06;7.93;;;4.95;;
41739;SDS011;27422;52.444;13.300;2022-10-18T12:17:43;8.00;;;4.95;;
41739;SDS011;27422;52.444;13.300;2022-10-18T12:20:30;8.25;;;5.35;;
41739;SDS011;27422;52.444;13.300;2022-10-18T12:23:14;9.02;;;5.53;;
41739;SDS011;27422;52.444;13.300;2022-10-18T12:25:42;8.02;;;5.38;;
41739;SDS011;27422;52.444;13.300;2022-10-18T12:33:53;8.57;;;5.35;;
41739;SDS011;27422;52.444;13.300;2022-10-18T12:38:53;9.10;;;5.03;;
41739;SDS011;27422;52.444;13.300;2022-10-18T12:41:29;9.25;;;5.90;;
41739;SDS011;27422;52.444;13.300;2022-10-18T12:44:02;9.38;;;5.75;;
41739;SDS011;27422;52.444;13.300;2022-10-18T12:46:48;8.02;;;5.43;;
41739;SDS011;27422;52.444;13.300;2022-10-18T12:49:17;9.75;;;5.45;;
41739;SDS011;27422;52.444;13.300;2022-10-18T12:52:18;9.07;;;5.45;;
41739;SDS011;27422;52.444;13.300;2022-10-18T12:55:26;11.80;;;5.95;;
41739;SDS011;27422;52.444;13.300;2022-10-18T13:17:17;13.45;;;7.05;;
41739;SDS011;27422;52.444;13.300;2022-10-18T13:20:19;9.93;;;6.30;;
41739;SDS011;27422;52.444;13.300;2022-10-18T13:23:01;10.23;;;6.10;;
41739;SDS011;27422;52.444;13.300;2022-10-18T13:26:00;10.02;;;6.07;;
41739;SDS011;27422;52.444;13.300;2022-10-18T13:33:50;10.65;;;6.78;;
41739;SDS011;27422;52.444;13.300;2022-10-18T13:38:42;9.98;;;6.72;;
41739;SDS011;27422;52.444;13.300;2022-10-18T13:41:18;10.18;;;6.35;;
41739;SDS011;27422;52.444;13.300;2022-10-18T14:05:54;11.70;;;7.18;;
41739;SDS011;27422;52.444;13.300;2022-10-18T14:08:33;10.35;;;6.85;;
41739;SDS011;27422;52.444;13.300;2022-10-18T14:13:40;10.82;;;7.20;;
41739;SDS011;27422;52.444;13.300;2022-10-18T14:19:43;11.40;;;7.45;;
41739;SDS011;27422;52.444;13.300;2022-10-18T14:22:30;9.20;;;6.68;;
41739;SDS011;27422;52.444;13.300;2022-10-18T14:24:58;10.18;;;6.38;;
41739;SDS011;27422;52.444;13.300;2022-10-18T14:27:24;12.27;;;7.32;;
41739;SDS011;27422;52.444;13.300;2022-10-18T14:32:32;10.18;;;6.57;;
41739;SDS011;27422;52.444;13.300;2022-10-18T14:34:57;9.95;;;6.47;;
41739;SDS011;27422;52.444;13.300;2022-10-18T14:37:27;8.15;;;5.75;;
41739;SDS011;27422;52.444;13.300;2022-10-18T14:39:55;9.98;;;6.57;;
41739;SDS011;27422;52.444;13.300;2022-10-18T14:42:22;11.02;;;5.88;;
41739;SDS011;27422;52.444;13.300;2022-10-18T14:44:49;11.98;;;6.70;;
41739;SDS011;27422;52.444;13.300;2022-10-18T14:49:47;10.07;;;6.40;;
41739;SDS011;27422;52.444;13.300;2022-10-18T14:52:32;10.93;;;6.90;;
41739;SDS011;27422;52.444;13.300;2022-10-18T14:54:57;11.25;;;7.60;;
41739;SDS011;27422;52.444;13.300;2022-10-18T14:57:33;12.35;;;7.57;;
41739;SDS011;27422;52.444;13.300;2022-10-18T15:00:01;11.53;;;7.17;;
41739;SDS011;27422;52.444;13.300;2022-10-18T15:02:33;12.25;;;7.13;;
41739;SDS011;27422;52.444;13.300;2022-10-18T15:07:35;11.73;;;7.22;;
41739;SDS011;27422;52.444;13.300;2022-10-18T15:10:04;10.68;;;7.28;;
41739;SDS011;27422;52.444;13.300;2022-10-18T15:12:30;13.13;;;7.18;;
41739;SDS011;27422;52.444;13.300;2022-10-18T15:14:56;11.70;;;7.40;;
41739;SDS011;27422;52.444;13.300;2022-10-18T15:17:23;10.77;;;7.18;;
41739;SDS011;27422;52.444;13.300;2022-10-18T15:19:54;10.38;;;7.00;;
41739;SDS011;27422;52.444;13.300;2022-10-18T15:22:25;12.50;;;6.88;;
41739;SDS011;27422;52.444;13.300;2022-10-18T15:29:55;10.95;;;7.25;;
41739;SDS011;27422;52.444;13.300;2022-10-18T15:32:24;13.57;;;7.88;;
41739;SDS011;27422;52.444;13.300;2022-10-18T15:34:51;12.00;;;7.15;;
41739;SDS011;27422;52.444;13.300;2022-10-18T15:37:31;10.18;;;6.90;;
41739;SDS011;27422;52.444;13.300;2022-10-18T15:43:04;11.75;;;7.72;;
41739;SDS011;27422;52.444;13.300;2022-10-18T15:45:48;12.30;;;7.13;;
41739;SDS011;27422;52.444;13.300;2022-10-18T15:48:40;10.80;;;6.85;;
41739;SDS011;27422;52.444;13.300;2022-10-18T15:51:06;12.05;;;7.47;;
41739;SDS011;27422;52.444;13.300;2022-10-18T15:53:52;13.00;;;7.83;;
41739;SDS011;27422;52.444;13.300;2022-10-18T15:56:31;11.95;;;7.68;;
41739;SDS011;27422;52.444;13.300;2022-10-18T15:59:05;12.23;;;7.95;;
41739;SDS011;27422;52.444;13.300;2022-10-18T16:01:42;12.60;;;8.18;;
41739;SDS011;27422;52.444;13.300;2022-10-18T16:04:14;11.32;;;7.88;;
41739;SDS011;27422;52.444;13.300;2022-10-18T16:06:49;14.10;;;9.13;;
41739;SDS011;27422;52.444;13.300;2022-10-18T16:09:16;12.63;;;8.15;;
41739;SDS011;27422;52.444;13.300;2022-10-18T16:11:43;13.88;;;8.27;;
41739;SDS011;27422;52.444;13.300;2022-10-18T16:14:09;14.02;;;8.63;;
41739;SDS011;27422;52.444;13.300;2022-10-18T16:16:34;14.57;;;8.88;;
41739;SDS011;27422;52.444;13.300;2022-10-18T16:18:59;14.40;;;8.98;;
41739;SDS011;27422;52.444;13.300;2022-10-18T16:21:35;14.48;;;9.25;;
41739;SDS011;27422;52.444;13.300;2022-10-18T16:24:01;15.27;;;8.70;;
41739;SDS011;27422;52.444;13.300;2022-10-18T16:26:27;15.27;;;8.60;;
41739;SDS011;27422;52.444;13.300;2022-10-18T16:28:54;15.57;;;8.73;;
41739;SDS011;27422;52.444;13.300;2022-10-18T16:31:21;15.50;;;9.00;;
41739;SDS011;27422;52.444;13.300;2022-10-18T16:33:48;15.13;;;8.57;;
41739;SDS011;27422;52.444;13.300;2022-10-18T16:36:18;16.23;;;9.15;;
41739;SDS011;27422;52.444;13.300;2022-10-18T16:38:45;15.90;;;9.98;;
41739;SDS011;27422;52.444;13.300;2022-10-18T16:41:11;16.10;;;10.13;;
41739;SDS011;27422;52.444;13.300;2022-10-18T16:43:40;16.20;;;9.57;;
41739;SDS011;27422;52.444;13.300;2022-10-18T16:46:06;14.98;;;9.73;;
41739;SDS011;27422;52.444;13.300;2022-10-18T16:48:32;13.18;;;9.07;;
41739;SDS011;27422;52.444;13.300;2022-10-18T16:50:57;14.65;;;9.65;;
41739;SDS011;27422;52.444;13.300;2022-10-18T16:53:23;14.95;;;10.00;;
41739;SDS011;27422;52.444;13.300;2022-10-18T16:55:56;15.73;;;10.55;;
41739;SDS011;27422;52.444;13.300;2022-10-18T16:58:23;16.92;;;10.18;;
41739;SDS011;27422;52.444;13.300;2022-10-18T17:00:49;14.48;;;9.95;;
41739;SDS011;27422;52.444;13.300;2022-10-18T17:03:14;14.23;;;10.10;;
41739;SDS011;27422;52.444;13.300;2022-10-18T17:05:40;17.60;;;10.15;;
41739;SDS011;27422;52.444;13.300;2022-10-18T17:08:06;16.50;;;10.43;;
41739;SDS011;27422;52.444;13.300;2022-10-18T17:10:31;15.10;;;9.32;;
41739;SDS011;27422;52.444;13.300;2022-10-18T17:12:57;17.60;;;9.60;;
41739;SDS011;27422;52.444;13.300;2022-10-18T17:15:22;13.75;;;9.07;;
41739;SDS011;27422;52.444;13.300;2022-10-18T17:17:48;16.08;;;9.60;;
41739;SDS011;27422;52.444;13.300;2022-10-18T17:20:20;15.15;;;9.98;;
41739;SDS011;27422;52.444;13.300;2022-10-18T17:22:47;17.75;;;10.73;;
41739;SDS011;27422;52.444;13.300;2022-10-18T17:25:13;17.30;;;10.73;;
41739;SDS011;27422;52.444;13.300;2022-10-18T17:27:38;17.70;;;10.40;;
41739;SDS011;27422;52.444;13.300;2022-10-18T17:30:04;17.85;;;11.00;;
41739;SDS011;27422;52.444;13.300;2022-10-18T17:32:30;17.08;;;10.32;;